createdAt,value
2022-10-17T00:00:22.579Z,96180
2022-10-17T00:01:32.405Z,96178
2022-10-17T00:02:41.061Z,96178
2022-10-17T00:03:49.905Z,96173
2022-10-17T00:04:59.575Z,96174
2022-10-17T00:06:07.303Z,96174
2022-10-17T00:07:17.253Z,96172
2022-10-17T00:08:26.986Z,96176
2022-10-17T00:09:35.692Z,96178
2022-10-17T00:10:44.376Z,96180
2022-10-17T00:11:53.059Z,96174
2022-10-17T00:13:01.840Z,96178
2022-10-17T00:14:10.529Z,96180
2022-10-17T00:15:20.210Z,96180
2022-10-17T00:16:28.933Z,96182
2022-10-17T00:17:38.635Z,96185
2022-10-17T00:18:47.436Z,96183
2022-10-17T00:19:57.167Z,96179
2022-10-17T00:21:05.825Z,96183
2022-10-17T00:22:15.554Z,96184
2022-10-17T00:23:25.209Z,96182
2022-10-17T00:24:32.906Z,96187
2022-10-17T00:25:42.564Z,96185
2022-10-17T00:26:52.351Z,96186
2022-10-17T00:28:01.028Z,96186
2022-10-17T00:29:09.741Z,96188
2022-10-17T00:30:19.426Z,96188
2022-10-17T00:31:28.102Z,96188
2022-10-17T00:32:37.794Z,96186
2022-10-17T00:33:46.474Z,96184
2022-10-17T00:34:55.151Z,96186
2022-10-17T00:36:04.864Z,96188
2022-10-17T00:37:12.534Z,96188
2022-10-17T00:38:21.258Z,96191
2022-10-17T00:39:30.935Z,96191
2022-10-17T00:40:40.588Z,96189
2022-10-17T00:41:50.415Z,96191
2022-10-17T00:42:59.185Z,96193
2022-10-17T00:44:07.861Z,96193
2022-10-17T00:45:17.565Z,96190
2022-10-17T00:46:26.256Z,96191
2022-10-17T00:47:35.067Z,96194
2022-10-17T00:48:43.744Z,96193
2022-10-17T00:49:51.452Z,96194
2022-10-17T00:51:01.104Z,96195
2022-10-17T00:52:09.832Z,96194
2022-10-17T00:53:19.535Z,96197
2022-10-17T00:54:29.304Z,96196
2022-10-17T00:55:36.968Z,96200
2022-10-17T00:56:46.704Z,96204
2022-10-17T00:57:55.368Z,96201
2022-10-17T01:00:14.788Z,96205
2022-10-17T01:01:22.476Z,96203
2022-10-17T01:02:31.211Z,96207
2022-10-17T01:03:40.831Z,96209
2022-10-17T01:04:48.522Z,96205
2022-10-17T01:05:57.298Z,96202
2022-10-17T01:07:06.982Z,96207
2022-10-17T01:08:15.661Z,96210
2022-10-17T01:09:26.316Z,96205
2022-10-17T01:10:35.028Z,96206
2022-10-17T01:11:44.708Z,96205
2022-10-17T01:12:53.386Z,96207
2022-10-17T01:14:02.126Z,96199
2022-10-17T01:15:10.844Z,96205
2022-10-17T01:16:19.650Z,96203
2022-10-17T01:17:28.339Z,96200
2022-10-17T01:18:38.072Z,96200
2022-10-17T01:19:45.786Z,96202
2022-10-17T01:20:54.449Z,96204
2022-10-17T01:22:04.210Z,96196
2022-10-17T01:23:12.870Z,96201
2022-10-17T01:24:22.530Z,96198
2022-10-17T01:25:31.210Z,96203
2022-10-17T01:26:40.915Z,96201
2022-10-17T01:27:50.621Z,96202
2022-10-17T01:28:58.283Z,96202
2022-10-17T01:30:06.960Z,96208
2022-10-17T01:31:16.653Z,96203
2022-10-17T01:32:25.540Z,96203
2022-10-17T01:33:35.104Z,96202
2022-10-17T01:34:43.790Z,96202
2022-10-17T01:35:52.444Z,96200
2022-10-17T01:37:03.112Z,96201
2022-10-17T01:38:11.794Z,96194
2022-10-17T01:39:20.473Z,96196
2022-10-17T01:40:31.234Z,96198
2022-10-17T01:41:38.906Z,96195
2022-10-17T01:42:48.682Z,96193
2022-10-17T01:43:58.328Z,96190
2022-10-17T01:45:07.060Z,96190
2022-10-17T01:46:16.771Z,96194
2022-10-17T01:47:24.610Z,96187
2022-10-17T01:48:33.103Z,96189
2022-10-17T01:49:42.831Z,96184
2022-10-17T01:50:50.721Z,96183
2022-10-17T01:51:59.407Z,96187
2022-10-17T01:53:08.108Z,96186
2022-10-17T01:54:16.778Z,96184
2022-10-17T01:55:26.498Z,96190
2022-10-17T01:56:35.212Z,96188
2022-10-17T01:57:43.926Z,96190
2022-10-17T01:58:52.732Z,96185
2022-10-17T02:00:02.323Z,96186
2022-10-17T02:01:11.099Z,96185
2022-10-17T02:02:20.844Z,96179
2022-10-17T02:03:28.522Z,96181
2022-10-17T02:04:38.199Z,96181
2022-10-17T02:05:47.904Z,96183
2022-10-17T02:06:55.570Z,96179
2022-10-17T02:08:04.306Z,96179
2022-10-17T02:09:13.011Z,96185
2022-10-17T02:10:21.692Z,96184
2022-10-17T02:11:32.369Z,96185
2022-10-17T02:12:41.059Z,96184
2022-10-17T02:13:48.773Z,96183
2022-10-17T02:14:58.441Z,96185
2022-10-17T02:16:07.121Z,96186
2022-10-17T02:17:16.812Z,96187
2022-10-17T02:18:25.484Z,96189
2022-10-17T02:19:34.241Z,96189
2022-10-17T02:20:44.237Z,96188
2022-10-17T02:21:50.964Z,96183
2022-10-17T02:22:59.602Z,96188
2022-10-17T02:24:09.274Z,96189
2022-10-17T02:25:18.007Z,96185
2022-10-17T02:26:26.674Z,96183
2022-10-17T02:27:36.357Z,96182
2022-10-17T02:28:45.134Z,96183
2022-10-17T02:29:54.778Z,96182
2022-10-17T02:31:02.495Z,96182
2022-10-17T02:32:11.227Z,96184
2022-10-17T02:33:20.901Z,96183
2022-10-17T02:34:28.587Z,96181
2022-10-17T02:35:37.325Z,96184
2022-10-17T02:36:46.032Z,96184
2022-10-17T02:37:54.709Z,96188
2022-10-17T02:39:04.399Z,96180
2022-10-17T02:40:12.083Z,96185
2022-10-17T02:41:21.811Z,96186
2022-10-17T02:42:32.679Z,96188
2022-10-17T02:43:40.266Z,96185
2022-10-17T02:44:48.964Z,96187
2022-10-17T02:45:58.656Z,96187
2022-10-17T02:47:08.383Z,96187
2022-10-17T02:48:17.070Z,96189
2022-10-17T02:49:24.727Z,96186
2022-10-17T02:50:33.408Z,96187
2022-10-17T02:51:43.107Z,96189
2022-10-17T02:52:51.794Z,96186
2022-10-17T02:54:00.629Z,96181
2022-10-17T02:55:09.340Z,96182
2022-10-17T02:56:18.019Z,96182
2022-10-17T02:57:27.755Z,96178
2022-10-17T02:58:36.471Z,96181
2022-10-17T02:59:45.210Z,96180
2022-10-17T03:00:54.969Z,96181
2022-10-17T03:02:03.592Z,96184
2022-10-17T03:03:12.395Z,96183
2022-10-17T03:04:22.103Z,96180
2022-10-17T03:05:31.829Z,96183
2022-10-17T03:06:41.555Z,96187
2022-10-17T03:07:50.341Z,96183
2022-10-17T03:08:59.023Z,96186
2022-10-17T03:10:08.734Z,96179
2022-10-17T03:11:17.650Z,96181
2022-10-17T03:12:26.423Z,96190
2022-10-17T03:13:36.294Z,96184
2022-10-17T03:14:44.701Z,96187
2022-10-17T03:15:54.405Z,96179
2022-10-17T03:17:02.134Z,96184
2022-10-17T03:18:10.802Z,96179
2022-10-17T03:19:20.541Z,96182
2022-10-17T03:20:30.229Z,96185
2022-10-17T03:21:39.965Z,96186
2022-10-17T03:22:48.643Z,96186
2022-10-17T03:23:57.358Z,96189
2022-10-17T03:25:07.043Z,96191
2022-10-17T03:26:15.713Z,96190
2022-10-17T03:27:25.397Z,96194
2022-10-17T03:28:35.287Z,96189
2022-10-17T03:29:42.956Z,96189
2022-10-17T03:30:51.722Z,96197
2022-10-17T03:32:00.428Z,96189
2022-10-17T03:33:09.101Z,96191
2022-10-17T03:34:18.836Z,96191
2022-10-17T03:35:28.517Z,96193
2022-10-17T03:36:37.208Z,96190
2022-10-17T03:37:46.874Z,96192
2022-10-17T03:38:55.595Z,96192
2022-10-17T03:40:04.307Z,96190
2022-10-17T03:41:12.990Z,96191
2022-10-17T03:42:22.691Z,96197
2022-10-17T03:43:32.364Z,96193
2022-10-17T03:44:40.041Z,96196
2022-10-17T03:45:48.736Z,96195
2022-10-17T03:46:58.457Z,96194
2022-10-17T03:48:07.116Z,96197
2022-10-17T03:49:15.809Z,96199
2022-10-17T03:50:25.479Z,96203
2022-10-17T03:51:35.204Z,96203
2022-10-17T03:52:44.867Z,96207
2022-10-17T03:53:52.535Z,96205
2022-10-17T03:55:01.416Z,96213
2022-10-17T03:56:11.109Z,96211
2022-10-17T03:57:20.850Z,96204
2022-10-17T03:58:29.504Z,96205
2022-10-17T03:59:40.207Z,96212
2022-10-17T04:00:47.902Z,96210
2022-10-17T04:01:56.610Z,96204
2022-10-17T04:03:06.270Z,96197
2022-10-17T04:04:16.935Z,96204
2022-10-17T04:05:25.604Z,96205
2022-10-17T04:06:34.300Z,96209
2022-10-17T04:07:44.040Z,96208
2022-10-17T04:08:53.749Z,96205
2022-10-17T04:10:01.444Z,96208
2022-10-17T04:11:11.170Z,96209
2022-10-17T04:12:20.798Z,96209
2022-10-17T04:13:30.468Z,96213
2022-10-17T04:14:39.219Z,96211
2022-10-17T04:15:48.897Z,96218
2022-10-17T04:16:58.487Z,96214
2022-10-17T04:18:07.439Z,96221
2022-10-17T04:19:15.130Z,96221
2022-10-17T04:20:23.903Z,96219
2022-10-17T04:21:33.574Z,96216
2022-10-17T04:22:42.298Z,96217
2022-10-17T04:23:49.997Z,96219
2022-10-17T04:24:59.754Z,96222
2022-10-17T04:26:08.603Z,96220
2022-10-17T04:27:18.334Z,96221
2022-10-17T04:28:27.151Z,96218
2022-10-17T04:29:35.743Z,96221
2022-10-17T04:30:45.660Z,96219
2022-10-17T04:31:56.292Z,96222
2022-10-17T04:33:06.170Z,96225
2022-10-17T04:34:14.927Z,96221
2022-10-17T04:35:24.663Z,96217
2022-10-17T04:36:34.398Z,96222
2022-10-17T04:37:42.089Z,96216
2022-10-17T04:38:51.811Z,96213
2022-10-17T04:40:01.539Z,96219
2022-10-17T04:41:10.234Z,96217
2022-10-17T04:42:19.891Z,96213
2022-10-17T04:43:28.607Z,96215
2022-10-17T04:44:37.322Z,96218
2022-10-17T04:45:47.031Z,96219
2022-10-17T04:46:54.861Z,96219
2022-10-17T04:48:03.833Z,96223
2022-10-17T04:49:14.836Z,96222
2022-10-17T04:50:23.240Z,96223
2022-10-17T04:51:31.904Z,96222
2022-10-17T04:52:40.613Z,96227
2022-10-17T04:53:49.329Z,96223
2022-10-17T04:54:59.060Z,96230
2022-10-17T04:56:08.817Z,96226
2022-10-17T04:57:18.480Z,96231
2022-10-17T04:58:28.202Z,96230
2022-10-17T04:59:36.986Z,96226
2022-10-17T05:00:46.712Z,96231
2022-10-17T05:01:55.378Z,96228
2022-10-17T05:03:04.070Z,96234
2022-10-17T05:04:13.794Z,96234
2022-10-17T05:05:22.542Z,96231
2022-10-17T05:06:31.272Z,96239
2022-10-17T05:07:40.941Z,96240
2022-10-17T05:08:48.637Z,96238
2022-10-17T05:09:57.372Z,96243
2022-10-17T05:11:07.056Z,96245
2022-10-17T05:12:16.812Z,96249
2022-10-17T05:13:26.524Z,96251
2022-10-17T05:14:35.223Z,96246
2022-10-17T05:15:43.879Z,96245
2022-10-17T05:16:53.574Z,96249
2022-10-17T05:18:02.273Z,96249
2022-10-17T05:19:11.021Z,96253
2022-10-17T05:20:19.721Z,96250
2022-10-17T05:21:28.475Z,96249
2022-10-17T05:22:39.650Z,96250
2022-10-17T05:23:47.840Z,96252
2022-10-17T05:24:57.507Z,96251
2022-10-17T05:26:07.189Z,96247
2022-10-17T05:27:15.903Z,96251
2022-10-17T05:28:26.718Z,96253
2022-10-17T05:29:36.317Z,96257
2022-10-17T05:30:45.998Z,96253
2022-10-17T05:31:55.802Z,96256
2022-10-17T05:33:05.426Z,96256
2022-10-17T05:34:15.140Z,96255
2022-10-17T05:35:25.017Z,96256
2022-10-17T05:36:33.755Z,96259
2022-10-17T05:37:43.489Z,96267
2022-10-17T05:38:52.200Z,96263
2022-10-17T05:40:00.928Z,96264
2022-10-17T05:41:10.667Z,96264
2022-10-17T05:42:18.369Z,96265
2022-10-17T05:43:27.043Z,96264
2022-10-17T05:44:35.754Z,96265
2022-10-17T05:45:44.420Z,96261
2022-10-17T05:46:54.166Z,96270
2022-10-17T05:48:02.858Z,96270
2022-10-17T05:49:19.516Z,96272
2022-10-17T05:50:24.207Z,96275
2022-10-17T05:51:32.909Z,96276
2022-10-17T05:52:43.893Z,96281
2022-10-17T05:53:52.245Z,96280
2022-10-17T05:55:01.911Z,96276
2022-10-17T05:56:11.620Z,96281
2022-10-17T05:57:21.388Z,96280
2022-10-17T05:59:38.794Z,96281
2022-10-17T06:00:48.462Z,96284
2022-10-17T06:01:57.127Z,96282
2022-10-17T06:03:05.810Z,96288
2022-10-17T06:04:15.615Z,96287
2022-10-17T06:05:25.272Z,96296
2022-10-17T06:06:34.951Z,96295
2022-10-17T06:07:43.616Z,96296
2022-10-17T06:08:53.316Z,96303
2022-10-17T06:10:03.039Z,96301
2022-10-17T06:11:12.730Z,96303
2022-10-17T06:12:21.410Z,96309
2022-10-17T06:13:30.085Z,96305
2022-10-17T06:14:39.786Z,96305
2022-10-17T06:15:49.547Z,96310
2022-10-17T06:16:58.234Z,96301
2022-10-17T06:18:07.923Z,96311
2022-10-17T06:19:17.636Z,96304
2022-10-17T06:20:27.321Z,96306
2022-10-17T06:21:35.021Z,96306
2022-10-17T06:22:43.721Z,96307
2022-10-17T06:23:53.411Z,96307
2022-10-17T06:25:03.093Z,96309
2022-10-17T06:26:10.766Z,96306
2022-10-17T06:27:19.443Z,96307
2022-10-17T06:28:29.199Z,96302
2022-10-17T06:29:37.874Z,96305
2022-10-17T06:30:46.595Z,96305
2022-10-17T06:31:55.334Z,96305
2022-10-17T06:33:05.025Z,96311
2022-10-17T06:34:14.693Z,96309
2022-10-17T06:35:24.418Z,96307
2022-10-17T06:36:34.097Z,96308
2022-10-17T06:37:43.808Z,96312
2022-10-17T06:38:52.534Z,96306
2022-10-17T06:40:01.212Z,96308
2022-10-17T06:41:11.058Z,96311
2022-10-17T06:42:19.711Z,96312
2022-10-17T06:43:29.411Z,96307
2022-10-17T06:44:38.125Z,96308
2022-10-17T06:45:46.913Z,96308
2022-10-17T06:46:56.565Z,96312
2022-10-17T06:48:05.260Z,96317
2022-10-17T06:49:13.924Z,96318
2022-10-17T06:50:22.647Z,96319
2022-10-17T06:51:31.360Z,96318
2022-10-17T06:52:41.030Z,96326
2022-10-17T06:53:49.728Z,96325
2022-10-17T06:54:59.418Z,96325
2022-10-17T06:56:08.181Z,96322
2022-10-17T06:57:16.885Z,96332
2022-10-17T06:58:26.592Z,96336
2022-10-17T06:59:36.255Z,96333
2022-10-17T07:00:45.011Z,96335
2022-10-17T07:01:54.596Z,96341
2022-10-17T07:03:02.285Z,96338
2022-10-17T07:04:10.986Z,96335
2022-10-17T07:05:20.704Z,96333
2022-10-17T07:06:28.382Z,96336
2022-10-17T07:07:38.916Z,96335
2022-10-17T07:08:48.808Z,96337
2022-10-17T07:09:57.478Z,96340
2022-10-17T07:11:07.162Z,96336
2022-10-17T07:12:15.834Z,96344
2022-10-17T07:13:24.517Z,96343
2022-10-17T07:14:35.199Z,96341
2022-10-17T07:15:43.845Z,96344
2022-10-17T07:16:53.695Z,96344
2022-10-17T07:18:02.401Z,96347
2022-10-17T07:19:12.094Z,96346
2022-10-17T07:20:21.808Z,96352
2022-10-17T07:21:32.987Z,96350
2022-10-17T07:22:40.166Z,96349
2022-10-17T07:23:49.877Z,96351
2022-10-17T07:24:59.645Z,96356
2022-10-17T07:26:08.334Z,96359
2022-10-17T07:27:18.021Z,96359
2022-10-17T07:28:26.806Z,96360
2022-10-17T07:29:36.448Z,96361
2022-10-17T07:30:49.362Z,96365
2022-10-17T07:31:55.018Z,96368
2022-10-17T07:33:04.732Z,96366
2022-10-17T07:34:12.435Z,96366
2022-10-17T07:35:22.162Z,96365
2022-10-17T07:36:31.927Z,96367
2022-10-17T07:37:40.626Z,96371
2022-10-17T07:38:50.326Z,96376
2022-10-17T07:39:59.003Z,96381
2022-10-17T07:41:08.678Z,96382
2022-10-17T07:42:19.489Z,96378
2022-10-17T07:43:27.212Z,96376
2022-10-17T07:44:36.907Z,96382
2022-10-17T07:45:45.606Z,96383
2022-10-17T07:46:55.311Z,96385
2022-10-17T07:48:04.991Z,96385
2022-10-17T07:49:12.689Z,96388
2022-10-17T07:50:22.385Z,96386
2022-10-17T07:51:32.072Z,96385
2022-10-17T07:52:41.865Z,96386
2022-10-17T07:53:50.524Z,96385
2022-10-17T07:55:00.227Z,96391
2022-10-17T07:56:08.917Z,96389
2022-10-17T07:57:17.607Z,96392
2022-10-17T07:58:28.305Z,96393
2022-10-17T07:59:37.120Z,96395
2022-10-17T08:00:46.929Z,96395
2022-10-17T08:01:55.497Z,96390
2022-10-17T08:03:05.164Z,96395
2022-10-17T08:04:14.852Z,96397
2022-10-17T08:05:23.591Z,96394
2022-10-17T08:06:33.268Z,96392
2022-10-17T08:07:43.013Z,96386
2022-10-17T08:08:51.747Z,96392
2022-10-17T08:10:01.441Z,96391
2022-10-17T08:11:12.213Z,96393
2022-10-17T08:12:20.887Z,96392
2022-10-17T08:13:30.569Z,96391
2022-10-17T08:14:39.321Z,96393
2022-10-17T08:15:49.006Z,96391
2022-10-17T08:16:58.725Z,96393
2022-10-17T08:18:07.416Z,96394
2022-10-17T08:19:16.096Z,96396
2022-10-17T08:20:25.822Z,96396
2022-10-17T08:21:35.464Z,96393
2022-10-17T08:22:45.206Z,96390
2022-10-17T08:23:53.984Z,96395
2022-10-17T08:25:03.647Z,96399
2022-10-17T08:26:13.418Z,96395
2022-10-17T08:27:21.125Z,96397
2022-10-17T08:28:30.918Z,96393
2022-10-17T08:29:39.596Z,96390
2022-10-17T08:30:48.272Z,96387
2022-10-17T08:32:01.034Z,96392
2022-10-17T08:33:08.639Z,96390
2022-10-17T08:34:17.338Z,96394
2022-10-17T08:35:27.031Z,96400
2022-10-17T08:36:35.742Z,96398
2022-10-17T08:37:45.419Z,96398
2022-10-17T08:38:54.086Z,96405
2022-10-17T08:40:03.911Z,96401
2022-10-17T08:41:13.599Z,96402
2022-10-17T08:42:22.299Z,96405
2022-10-17T08:43:35.239Z,96401
2022-10-17T08:44:41.722Z,96401
2022-10-17T08:45:50.578Z,96393
2022-10-17T08:46:59.260Z,96393
2022-10-17T08:48:07.966Z,96395
2022-10-17T08:49:16.703Z,96397
2022-10-17T08:50:26.412Z,96398
2022-10-17T08:51:35.163Z,96403
2022-10-17T08:52:44.823Z,96397
2022-10-17T08:53:54.553Z,96396
2022-10-17T08:55:03.300Z,96397
2022-10-17T08:56:19.412Z,96393
2022-10-17T08:57:22.765Z,96394
2022-10-17T08:58:31.455Z,96397
2022-10-17T08:59:41.127Z,96392
2022-10-17T09:00:48.853Z,96396
2022-10-17T09:01:58.560Z,96394
2022-10-17T09:03:08.340Z,96403
2022-10-17T09:04:15.989Z,96402
2022-10-17T09:05:26.528Z,96403
2022-10-17T09:06:35.466Z,96397
2022-10-17T09:07:44.146Z,96398
2022-10-17T09:08:53.839Z,96397
2022-10-17T09:10:03.545Z,96396
2022-10-17T09:11:12.242Z,96394
2022-10-17T09:12:21.953Z,96403
2022-10-17T09:13:30.645Z,96398
2022-10-17T09:14:40.371Z,96399
2022-10-17T09:15:49.052Z,96400
2022-10-17T09:16:57.738Z,96403
2022-10-17T09:18:07.470Z,96404
2022-10-17T09:19:17.218Z,96402
2022-10-17T09:20:26.907Z,96407
2022-10-17T09:21:36.660Z,96404
2022-10-17T09:22:44.447Z,96407
2022-10-17T09:23:56.130Z,96407
2022-10-17T09:25:04.812Z,96401
2022-10-17T09:26:13.493Z,96402
2022-10-17T09:27:23.215Z,96398
2022-10-17T09:28:33.037Z,96398
2022-10-17T09:29:43.911Z,96398
2022-10-17T09:30:52.317Z,96395
2022-10-17T09:32:00.150Z,96397
2022-10-17T09:33:15.237Z,96398
2022-10-17T09:34:22.989Z,96403
2022-10-17T09:35:30.243Z,96399
2022-10-17T09:36:39.954Z,96402
2022-10-17T09:37:47.642Z,96402
2022-10-17T09:38:56.329Z,96397
2022-10-17T09:40:06.087Z,96400
2022-10-17T09:41:32.341Z,96404
2022-10-17T09:42:23.517Z,96406
2022-10-17T09:43:33.247Z,96402
2022-10-17T09:44:42.964Z,96405
2022-10-17T09:45:52.624Z,96405
2022-10-17T09:47:00.305Z,96412
2022-10-17T09:48:08.947Z,96417
2022-10-17T09:49:18.751Z,96418
2022-10-17T09:50:27.562Z,96413
2022-10-17T09:51:37.252Z,96411
2022-10-17T09:52:46.978Z,96409
2022-10-17T09:53:56.666Z,96416
2022-10-17T09:55:05.384Z,96413
2022-10-17T09:56:15.088Z,96411
2022-10-17T09:57:24.799Z,96409
2022-10-17T09:58:33.454Z,96410
2022-10-17T09:59:42.155Z,96409
2022-10-17T10:00:50.939Z,96411
2022-10-17T10:02:00.541Z,96413
2022-10-17T10:03:08.210Z,96414
2022-10-17T10:04:17.895Z,96420
2022-10-17T10:05:28.571Z,96419
2022-10-17T10:06:36.271Z,96417
2022-10-17T10:07:45.012Z,96416
2022-10-17T10:08:54.777Z,96418
2022-10-17T10:10:04.440Z,96420
2022-10-17T10:11:14.197Z,96424
2022-10-17T10:12:22.852Z,96423
2022-10-17T10:13:31.515Z,96424
2022-10-17T10:14:42.120Z,96423
2022-10-17T10:15:50.913Z,96426
2022-10-17T10:17:01.770Z,96425
2022-10-17T10:18:11.598Z,96426
2022-10-17T10:19:20.303Z,96428
2022-10-17T10:20:29.975Z,96425
2022-10-17T10:21:37.681Z,96423
2022-10-17T10:22:47.346Z,96422
2022-10-17T10:23:58.197Z,96421
2022-10-17T10:25:06.864Z,96419
2022-10-17T10:26:18.919Z,96423
2022-10-17T10:27:26.308Z,96415
2022-10-17T10:28:35.158Z,96418
2022-10-17T10:29:44.905Z,96416
2022-10-17T10:30:53.577Z,96419
2022-10-17T10:32:02.292Z,96420
2022-10-17T10:33:12.061Z,96420
2022-10-17T10:34:21.702Z,96421
2022-10-17T10:35:31.419Z,96423
2022-10-17T10:36:41.082Z,96426
2022-10-17T10:37:49.783Z,96423
2022-10-17T10:39:01.184Z,96421
2022-10-17T10:40:09.208Z,96426
2022-10-17T10:41:16.897Z,96425
2022-10-17T10:42:25.561Z,96424
2022-10-17T10:43:34.241Z,96425
2022-10-17T10:44:42.924Z,96431
2022-10-17T10:45:51.613Z,96431
2022-10-17T10:47:00.318Z,96427
2022-10-17T10:48:09.987Z,96425
2022-10-17T10:49:18.696Z,96426
2022-10-17T10:50:28.398Z,96425
2022-10-17T10:51:38.063Z,96428
2022-10-17T10:52:47.778Z,96428
2022-10-17T10:53:57.473Z,96428
2022-10-17T10:55:08.183Z,96427
2022-10-17T10:56:17.868Z,96426
2022-10-17T10:57:27.933Z,96424
2022-10-17T10:58:37.793Z,96420
2022-10-17T10:59:44.979Z,96419
2022-10-17T11:00:54.715Z,96422
2022-10-17T11:02:02.375Z,96420
2022-10-17T11:03:12.924Z,96424
2022-10-17T11:04:21.838Z,96418
2022-10-17T11:05:30.527Z,96420
2022-10-17T11:06:40.225Z,96421
2022-10-17T11:07:48.901Z,96418
2022-10-17T11:08:58.617Z,96419
2022-10-17T11:10:08.314Z,96417
2022-10-17T11:11:15.984Z,96414
2022-10-17T11:12:25.672Z,96415
2022-10-17T11:13:34.345Z,96417
2022-10-17T11:14:43.009Z,96417
2022-10-17T11:15:51.767Z,96412
2022-10-17T11:16:59.443Z,96414
2022-10-17T11:18:09.125Z,96416
2022-10-17T11:19:18.794Z,96415
2022-10-17T11:20:27.489Z,96412
2022-10-17T11:21:36.232Z,96415
2022-10-17T11:22:45.089Z,96412
2022-10-17T11:23:54.778Z,96413
2022-10-17T11:25:04.480Z,96414
2022-10-17T11:26:12.133Z,96414
2022-10-17T11:27:20.955Z,96413
2022-10-17T11:28:30.654Z,96412
2022-10-17T11:29:40.263Z,96411
2022-10-17T11:30:48.952Z,96409
2022-10-17T11:31:57.627Z,96416
2022-10-17T11:33:06.355Z,96413
2022-10-17T11:34:16.022Z,96409
2022-10-17T11:35:23.730Z,96407
2022-10-17T11:36:33.419Z,96408
2022-10-17T11:37:42.911Z,96411
2022-10-17T11:38:51.797Z,96412
2022-10-17T11:40:00.485Z,96410
2022-10-17T11:41:10.158Z,96407
2022-10-17T11:42:18.917Z,96406
2022-10-17T11:43:28.613Z,96407
2022-10-17T11:44:38.316Z,96401
2022-10-17T11:45:48.003Z,96403
2022-10-17T11:46:57.703Z,96405
2022-10-17T11:48:05.364Z,96403
2022-10-17T11:49:17.551Z,96404
2022-10-17T11:53:01.854Z,96406
2022-10-17T11:53:56.608Z,96407
2022-10-17T11:55:05.287Z,96405
2022-10-17T11:56:14.174Z,96412
2022-10-17T11:57:22.836Z,96408
2022-10-17T11:58:31.689Z,96407
2022-10-17T11:59:41.352Z,96408
2022-10-17T12:00:49.723Z,96406
2022-10-17T12:01:58.697Z,96408
2022-10-17T12:03:07.393Z,96408
2022-10-17T12:04:16.130Z,96409
2022-10-17T12:05:25.839Z,96406
2022-10-17T12:06:34.520Z,96409
2022-10-17T12:08:53.455Z,96407
2022-10-17T12:10:03.126Z,96406
2022-10-17T12:11:11.778Z,96408
2022-10-17T12:12:21.471Z,96404
2022-10-17T12:13:29.174Z,96408
2022-10-17T12:14:37.833Z,96409
2022-10-17T12:15:47.514Z,96406
2022-10-17T12:16:56.214Z,96406
2022-10-17T12:18:05.928Z,96403
2022-10-17T12:19:14.661Z,96405
2022-10-17T12:20:24.419Z,96406
2022-10-17T12:21:34.084Z,96402
2022-10-17T12:22:43.725Z,96404
2022-10-17T12:23:52.393Z,96405
2022-10-17T12:25:00.206Z,96402
2022-10-17T12:26:08.886Z,96399
2022-10-17T12:27:18.677Z,96400
2022-10-17T12:28:28.337Z,96398
2022-10-17T12:29:36.955Z,96392
2022-10-17T12:30:46.782Z,96392
2022-10-17T12:31:54.437Z,96394
2022-10-17T12:33:08.135Z,96393
2022-10-17T12:34:13.801Z,96389
2022-10-17T12:35:22.488Z,96386
2022-10-17T12:36:33.168Z,96386
2022-10-17T12:37:40.861Z,96390
2022-10-17T12:38:50.570Z,96388
2022-10-17T12:40:00.253Z,96393
2022-10-17T12:41:09.022Z,96389
2022-10-17T12:42:18.731Z,96394
2022-10-17T12:43:27.419Z,96393
2022-10-17T12:44:36.133Z,96393
2022-10-17T12:45:45.850Z,96394
2022-10-17T12:46:53.509Z,96395
2022-10-17T12:48:02.196Z,96397
2022-10-17T12:49:11.893Z,96391
2022-10-17T12:50:20.563Z,96390
2022-10-17T12:51:35.587Z,96390
2022-10-17T12:52:41.059Z,96393
2022-10-17T12:53:49.718Z,96392
2022-10-17T12:55:10.799Z,96396
2022-10-17T12:56:10.020Z,96394
2022-10-17T12:57:18.719Z,96393
2022-10-17T12:58:28.364Z,96394
2022-10-17T12:59:36.182Z,96392
2022-10-17T13:00:54.772Z,96390
2022-10-17T13:01:56.585Z,96391
2022-10-17T13:03:06.202Z,96392
2022-10-17T13:04:15.863Z,96393
2022-10-17T13:05:25.585Z,96393
2022-10-17T13:06:35.293Z,96394
2022-10-17T13:07:44.988Z,96389
2022-10-17T13:08:55.531Z,96392
2022-10-17T13:10:02.424Z,96389
2022-10-17T13:11:11.190Z,96387
2022-10-17T13:12:19.855Z,96392
2022-10-17T13:13:29.546Z,96387
2022-10-17T13:14:39.244Z,96388
2022-10-17T13:15:48.938Z,96389
2022-10-17T13:16:58.641Z,96384
2022-10-17T13:18:07.308Z,96390
2022-10-17T13:19:15.996Z,96385
2022-10-17T13:20:25.654Z,96387
2022-10-17T13:21:34.407Z,96387
2022-10-17T13:22:44.111Z,96389
2022-10-17T13:23:52.785Z,96384
2022-10-17T13:25:01.563Z,96383
2022-10-17T13:26:11.280Z,96385
2022-10-17T13:27:18.974Z,96384
2022-10-17T13:28:28.735Z,96386
2022-10-17T13:29:37.381Z,96388
2022-10-17T13:30:49.342Z,96389
2022-10-17T13:31:57.726Z,96391
2022-10-17T13:33:05.407Z,96394
2022-10-17T13:34:14.296Z,96390
2022-10-17T13:35:27.826Z,96390
2022-10-17T13:36:34.738Z,96382
2022-10-17T13:37:43.469Z,96384
2022-10-17T13:38:54.111Z,96387
2022-10-17T13:40:11.609Z,96388
2022-10-17T13:41:34.633Z,96389
2022-10-17T13:42:25.088Z,96388
2022-10-17T13:43:33.743Z,96392
2022-10-17T13:44:43.625Z,96383
2022-10-17T13:45:52.142Z,96388
2022-10-17T13:47:02.810Z,96389
2022-10-17T13:48:12.515Z,96383
2022-10-17T13:49:21.382Z,96387
2022-10-17T13:50:43.428Z,96382
2022-10-17T13:51:40.532Z,96380
2022-10-17T13:52:49.222Z,96381
2022-10-17T13:53:57.977Z,96379
2022-10-17T13:55:07.671Z,96381
2022-10-17T13:56:27.635Z,96383
2022-10-17T13:57:28.237Z,96379
2022-10-17T13:58:35.698Z,96384
2022-10-17T13:59:45.367Z,96380
2022-10-17T14:00:55.098Z,96378
2022-10-17T14:02:04.747Z,96379
2022-10-17T14:03:13.501Z,96376
2022-10-17T14:04:23.200Z,96385
2022-10-17T14:05:33.868Z,96381
2022-10-17T14:06:44.943Z,96376
2022-10-17T14:09:03.865Z,96380
2022-10-17T14:10:13.547Z,96383
2022-10-17T14:11:23.232Z,96384
2022-10-17T14:12:32.906Z,96378
2022-10-17T14:13:41.609Z,96381
2022-10-17T14:15:09.580Z,96382
2022-10-17T14:16:01.956Z,96381
2022-10-17T14:17:11.602Z,96386
2022-10-17T14:18:21.297Z,96381
2022-10-17T14:19:31.952Z,96385
2022-10-17T14:21:19.690Z,96386
2022-10-17T14:21:51.261Z,96387
2022-10-17T14:23:21.281Z,96390
2022-10-17T14:24:10.625Z,96390
2022-10-17T14:25:20.303Z,96393
2022-10-17T14:26:30.150Z,96395
2022-10-17T14:27:38.843Z,96392
2022-10-17T14:28:48.565Z,96391
2022-10-17T14:29:57.206Z,96390
2022-10-17T14:31:05.933Z,96391
2022-10-17T14:32:15.592Z,96391
2022-10-17T14:33:24.237Z,96397
2022-10-17T14:34:33.935Z,96393
2022-10-17T14:35:42.587Z,96392
2022-10-17T14:36:51.265Z,96392
2022-10-17T14:38:00.970Z,96399
2022-10-17T14:39:14.245Z,96399
2022-10-17T14:40:18.307Z,96397
2022-10-17T14:41:42.236Z,96398
2022-10-17T14:42:38.620Z,96401
2022-10-17T14:43:48.332Z,96400
2022-10-17T14:44:58.066Z,96402
2022-10-17T14:46:06.736Z,96400
2022-10-17T14:47:38.413Z,96401
2022-10-17T14:48:28.026Z,96403
2022-10-17T14:49:36.748Z,96400
2022-10-17T14:51:56.862Z,96405
2022-10-17T14:53:04.976Z,96406
2022-10-17T14:54:14.730Z,96406
2022-10-17T14:55:23.414Z,96402
2022-10-17T14:56:33.107Z,96406
2022-10-17T14:57:40.772Z,96408
2022-10-17T14:58:49.495Z,96409